Time;durP1;ratioP1;P1;durP2;ratioP2;P2;SDS_P1;SDS_P2;PMS_P1;PMS_P2;Temp;Humidity;BMP_temperature;BMP_pressure;BME280_temperature;BME280_humidity;BME280_pressure;Samples;Min_cycle;Max_cycle;Signal;HPM_P1;HPM_P2
2024/02/11 00:00:47;;;;;;;18.15;14.45;;;;;;;;;;5018350;28;20301;-76
2024/02/11 00:03:12;;;;;;;17.98;13.85;;;;;;;;;;5017723;28;20190;-76
2024/02/11 00:05:38;;;;;;;15.82;13.20;;;;;;;;;;5042727;28;20193;-76
2024/02/11 00:08:04;;;;;;;18.55;14.27;;;;;;;;;;5025841;28;20340;-76
2024/02/11 00:10:29;;;;;;;21.67;14.95;;;;;;;;;;5028339;28;20494;-76
2024/02/11 00:12:57;;;;;;;18.42;14.80;;;;;;;;;;5044395;28;20539;-76
2024/02/11 00:15:23;;;;;;;18.90;14.88;;;;;;;;;;5033374;28;20276;-76
2024/02/11 00:17:48;;;;;;;19.33;15.63;;;;;;;;;;5029708;28;21029;-76
2024/02/11 00:20:15;;;;;;;18.42;14.80;;;;;;;;;;5034401;28;20666;-76
2024/02/11 00:22:42;;;;;;;20.58;14.63;;;;;;;;;;5040280;28;20268;-76
2024/02/11 00:25:10;;;;;;;19.80;13.82;;;;;;;;;;5041592;28;20853;-76
2024/02/11 00:27:42;;;;;;;18.67;14.50;;;;;;;;;;5035533;28;20551;-76
2024/02/11 00:30:08;;;;;;;19.10;15.02;;;;;;;;;;5035007;28;20178;-76
2024/02/11 00:32:34;;;;;;;19.88;15.90;;;;;;;;;;5047259;28;20198;-76
2024/02/11 00:34:59;;;;;;;20.33;15.82;;;;;;;;;;5029887;28;20197;-76
2024/02/11 00:37:29;;;;;;;21.02;15.82;;;;;;;;;;5031779;28;20214;-76
2024/02/11 00:39:55;;;;;;;23.00;17.02;;;;;;;;;;5024299;28;20627;-76
2024/02/11 00:42:21;;;;;;;21.65;16.08;;;;;;;;;;5038063;28;20214;-76
2024/02/11 00:44:47;;;;;;;23.02;16.17;;;;;;;;;;5052512;28;20673;-76
2024/02/11 00:47:12;;;;;;;19.40;15.68;;;;;;;;;;5051459;28;20177;-76
2024/02/11 00:49:38;;;;;;;19.77;15.52;;;;;;;;;;5020194;28;20296;-76
2024/02/11 00:52:03;;;;;;;23.17;17.30;;;;;;;;;;5035518;28;20193;-75
2024/02/11 00:54:37;;;;;;;22.80;17.15;;;;;;;;;;5041362;28;20196;-75
2024/02/11 00:57:04;;;;;;;21.55;16.80;;;;;;;;;;5017315;28;20186;-76
2024/02/11 00:59:29;;;;;;;27.52;17.63;;;;;;;;;;5049074;28;20245;-75
2024/02/11 01:01:54;;;;;;;26.67;18.05;;;;;;;;;;5039484;28;20225;-75
2024/02/11 01:04:20;;;;;;;24.73;19.02;;;;;;;;;;5037594;28;20319;-75
2024/02/11 01:06:45;;;;;;;24.55;18.48;;;;;;;;;;5025771;28;20696;-75
2024/02/11 01:09:11;;;;;;;25.85;19.13;;;;;;;;;;5041892;28;20204;-75
2024/02/11 01:11:36;;;;;;;28.00;19.27;;;;;;;;;;5035032;28;20185;-75
2024/02/11 01:14:02;;;;;;;25.02;19.33;;;;;;;;;;5022711;28;20256;-75
2024/02/11 01:16:28;;;;;;;27.45;19.45;;;;;;;;;;5024532;28;20182;-75
2024/02/11 01:18:53;;;;;;;26.65;20.20;;;;;;;;;;5038680;28;20241;-75
2024/02/11 01:21:19;;;;;;;27.35;20.23;;;;;;;;;;5036045;28;20268;-75
2024/02/11 01:23:47;;;;;;;28.52;20.33;;;;;;;;;;5040205;28;20190;-75
2024/02/11 01:26:13;;;;;;;30.80;22.00;;;;;;;;;;5042528;28;20220;-75
2024/02/11 01:28:39;;;;;;;31.58;23.13;;;;;;;;;;5039942;28;20189;-75
2024/02/11 01:31:06;;;;;;;33.60;23.92;;;;;;;;;;5038861;28;20178;-76
2024/02/11 01:33:32;;;;;;;35.63;24.33;;;;;;;;;;5030038;28;20713;-75
2024/02/11 01:35:58;;;;;;;34.75;24.40;;;;;;;;;;5027611;28;20286;-75
2024/02/11 01:38:23;;;;;;;37.22;24.88;;;;;;;;;;5013835;28;20191;-76
2024/02/11 01:40:50;;;;;;;38.00;26.27;;;;;;;;;;5012810;28;20211;-75
2024/02/11 01:43:15;;;;;;;39.45;27.65;;;;;;;;;;5038086;28;20197;-75
2024/02/11 01:45:41;;;;;;;42.60;27.65;;;;;;;;;;5041036;28;20185;-76
2024/02/11 01:48:08;;;;;;;43.30;29.00;;;;;;;;;;4997195;28;20321;-75
2024/02/11 01:50:36;;;;;;;39.17;28.00;;;;;;;;;;5011836;28;20726;-75
2024/02/11 01:53:06;;;;;;;40.83;28.77;;;;;;;;;;5042495;28;20189;-75
2024/02/11 01:55:33;;;;;;;41.30;29.17;;;;;;;;;;5037081;28;20194;-75
2024/02/11 01:58:00;;;;;;;44.00;29.42;;;;;;;;;;5025680;28;20198;-75
2024/02/11 02:00:25;;;;;;;48.75;29.95;;;;;;;;;;5018642;28;20214;-76
2024/02/11 02:02:54;;;;;;;47.33;32.17;;;;;;;;;;5025615;28;20188;-76
2024/02/11 02:05:20;;;;;;;51.08;32.20;;;;;;;;;;5019460;28;20277;-76
2024/02/11 02:07:46;;;;;;;47.92;32.92;;;;;;;;;;5035528;28;20515;-76
2024/02/11 02:10:12;;;;;;;46.85;31.83;;;;;;;;;;5024108;28;20187;-76
2024/02/11 02:12:39;;;;;;;53.50;33.70;;;;;;;;;;5038757;28;20653;-76
2024/02/11 02:15:05;;;;;;;52.63;33.92;;;;;;;;;;5046171;28;20636;-76
2024/02/11 02:17:31;;;;;;;53.42;35.33;;;;;;;;;;5010941;28;20222;-76
2024/02/11 02:19:56;;;;;;;56.92;35.15;;;;;;;;;;5034791;28;20216;-76
2024/02/11 02:22:22;;;;;;;53.35;35.72;;;;;;;;;;5034811;28;20645;-76
2024/02/11 02:24:50;;;;;;;53.45;35.83;;;;;;;;;;5037961;28;20213;-76
2024/02/11 02:27:16;;;;;;;56.15;35.17;;;;;;;;;;5030437;28;20174;-76
2024/02/11 02:29:44;;;;;;;52.58;34.38;;;;;;;;;;5039298;28;20602;-76
2024/02/11 02:32:11;;;;;;;60.67;35.20;;;;;;;;;;5032344;28;20183;-76
2024/02/11 02:34:37;;;;;;;53.85;35.53;;;;;;;;;;5035840;28;20205;-76
2024/02/11 02:37:03;;;;;;;55.30;35.63;;;;;;;;;;5029455;28;20240;-76
2024/02/11 02:39:28;;;;;;;53.85;34.83;;;;;;;;;;5041735;28;20256;-76
2024/02/11 02:41:54;;;;;;;56.42;35.15;;;;;;;;;;5027544;28;20691;-76
2024/02/11 02:44:19;;;;;;;54.60;36.10;;;;;;;;;;5023075;28;20278;-76
2024/02/11 02:46:45;;;;;;;59.58;36.33;;;;;;;;;;5030007;28;20185;-76
2024/02/11 02:49:12;;;;;;;55.60;35.80;;;;;;;;;;5043481;28;20238;-76
2024/02/11 02:51:39;;;;;;;58.88;36.22;;;;;;;;;;5039853;28;20186;-76
2024/02/11 02:54:04;;;;;;;55.28;35.75;;;;;;;;;;5011419;28;20222;-76
2024/02/11 02:56:32;;;;;;;57.38;35.67;;;;;;;;;;5032389;28;20233;-76
2024/02/11 02:58:57;;;;;;;55.25;35.25;;;;;;;;;;5029547;28;20214;-76
2024/02/11 03:01:26;;;;;;;57.42;35.70;;;;;;;;;;5013569;28;20245;-76
2024/02/11 03:03:52;;;;;;;58.30;35.80;;;;;;;;;;5022034;28;20194;-76
2024/02/11 03:06:18;;;;;;;57.47;35.25;;;;;;;;;;5026384;28;20646;-75
2024/02/11 03:08:43;;;;;;;56.67;35.42;;;;;;;;;;5031096;28;20183;-76
2024/02/11 03:11:09;;;;;;;58.75;36.67;;;;;;;;;;5026062;28;20666;-75
2024/02/11 03:13:34;;;;;;;55.92;35.58;;;;;;;;;;5027933;28;20220;-75
2024/02/11 03:15:59;;;;;;;54.78;34.10;;;;;;;;;;5012843;28;20280;-76
2024/02/11 03:18:25;;;;;;;55.42;34.53;;;;;;;;;;5039545;28;20296;-75
2024/02/11 03:20:51;;;;;;;59.25;35.63;;;;;;;;;;5037787;28;20266;-75
2024/02/11 03:23:16;;;;;;;56.75;36.20;;;;;;;;;;5032760;28;20283;-75
2024/02/11 03:25:42;;;;;;;59.80;35.60;;;;;;;;;;5010869;28;20556;-75
2024/02/11 03:28:07;;;;;;;60.85;36.30;;;;;;;;;;5011629;28;20193;-75
2024/02/11 03:30:35;;;;;;;60.05;35.28;;;;;;;;;;5028904;28;20206;-75
2024/02/11 03:33:00;;;;;;;59.20;35.08;;;;;;;;;;5043171;28;20243;-75
2024/02/11 03:35:27;;;;;;;60.65;35.88;;;;;;;;;;5042249;28;20614;-75
2024/02/11 03:37:52;;;;;;;59.88;35.33;;;;;;;;;;5042182;28;20677;-75
2024/02/11 03:40:19;;;;;;;60.72;36.15;;;;;;;;;;5026897;28;20234;-75
2024/02/11 03:42:45;;;;;;;55.55;33.08;;;;;;;;;;5039814;28;20310;-75
2024/02/11 03:45:11;;;;;;;60.20;34.85;;;;;;;;;;5015334;28;20186;-75
2024/02/11 03:47:40;;;;;;;59.17;35.28;;;;;;;;;;5028803;28;20235;-75
2024/02/11 03:50:07;;;;;;;57.50;35.25;;;;;;;;;;5018498;28;20185;-75
2024/02/11 03:52:35;;;;;;;57.00;34.75;;;;;;;;;;5020172;28;20241;-75
2024/02/11 03:55:02;;;;;;;61.22;34.97;;;;;;;;;;5026369;28;20535;-75
2024/02/11 03:57:28;;;;;;;57.30;34.10;;;;;;;;;;5033056;28;20190;-75
2024/02/11 03:59:53;;;;;;;61.53;35.75;;;;;;;;;;5004097;28;20723;-75
2024/02/11 04:02:19;;;;;;;60.75;35.17;;;;;;;;;;5030726;28;20181;-75
2024/02/11 04:04:45;;;;;;;60.78;36.25;;;;;;;;;;5032959;28;20190;-75
2024/02/11 04:07:11;;;;;;;63.22;36.67;;;;;;;;;;5026736;28;20270;-75
2024/02/11 04:09:39;;;;;;;60.20;35.60;;;;;;;;;;5008375;28;20265;-75
2024/02/11 04:12:08;;;;;;;66.18;35.88;;;;;;;;;;5018116;28;20189;-75
2024/02/11 04:14:36;;;;;;;63.45;36.85;;;;;;;;;;5031686;28;20194;-75
2024/02/11 04:17:03;;;;;;;59.22;35.50;;;;;;;;;;5027064;28;20514;-75
2024/02/11 04:19:32;;;;;;;64.10;36.63;;;;;;;;;;5018174;28;20202;-75
2024/02/11 04:21:58;;;;;;;68.40;35.72;;;;;;;;;;5025549;28;20194;-76
2024/02/11 04:24:28;;;;;;;64.78;35.75;;;;;;;;;;5033357;28;20193;-76
2024/02/11 04:26:54;;;;;;;58.92;34.50;;;;;;;;;;5017633;28;20230;-76
2024/02/11 04:29:21;;;;;;;64.00;36.92;;;;;;;;;;5001227;28;20697;-76
2024/02/11 04:31:47;;;;;;;59.47;35.00;;;;;;;;;;5039411;28;20197;-76
2024/02/11 04:34:13;;;;;;;65.40;36.80;;;;;;;;;;5029415;28;20234;-76
2024/02/11 04:36:40;;;;;;;63.92;35.38;;;;;;;;;;5022188;28;20223;-76
2024/02/11 04:39:08;;;;;;;64.80;36.15;;;;;;;;;;5016759;28;20244;-77
2024/02/11 04:41:39;;;;;;;67.70;35.33;;;;;;;;;;5035564;28;20214;-76
2024/02/11 04:44:05;;;;;;;59.40;35.83;;;;;;;;;;5023655;28;20211;-76
2024/02/11 04:46:32;;;;;;;64.78;38.35;;;;;;;;;;5031545;28;20194;-76
2024/02/11 04:48:58;;;;;;;65.10;35.78;;;;;;;;;;5023011;28;20201;-76
2024/02/11 04:51:30;;;;;;;63.65;35.17;;;;;;;;;;5040226;28;20551;-76
2024/02/11 04:53:59;;;;;;;60.08;34.80;;;;;;;;;;5014829;28;20183;-76
2024/02/11 04:56:30;;;;;;;65.55;36.58;;;;;;;;;;5031251;28;20629;-76
2024/02/11 04:59:01;;;;;;;65.60;36.78;;;;;;;;;;5025756;28;20247;-76
2024/02/11 05:01:27;;;;;;;66.05;36.03;;;;;;;;;;5028568;28;20567;-75
2024/02/11 05:03:53;;;;;;;62.42;36.05;;;;;;;;;;5042121;28;20197;-76
2024/02/11 05:06:23;;;;;;;68.20;37.28;;;;;;;;;;5030900;28;20199;-76
2024/02/11 05:08:50;;;;;;;64.13;35.60;;;;;;;;;;5024029;28;20202;-76
2024/02/11 05:11:15;;;;;;;64.28;37.30;;;;;;;;;;5023662;28;20201;-77
2024/02/11 05:13:43;;;;;;;65.90;37.72;;;;;;;;;;5034176;28;20187;-76
2024/02/11 05:16:09;;;;;;;68.03;37.83;;;;;;;;;;5011175;28;20193;-76
2024/02/11 05:18:38;;;;;;;65.93;37.00;;;;;;;;;;5033127;28;20237;-76
2024/02/11 05:21:04;;;;;;;64.97;36.55;;;;;;;;;;5039364;28;20207;-76
2024/02/11 05:23:30;;;;;;;59.78;35.75;;;;;;;;;;5032434;28;20256;-76
2024/02/11 05:25:59;;;;;;;63.47;37.33;;;;;;;;;;5028824;28;20190;-76
2024/02/11 05:28:24;;;;;;;63.50;37.10;;;;;;;;;;5039764;28;20629;-76
2024/02/11 05:30:52;;;;;;;64.18;36.97;;;;;;;;;;5035736;28;20258;-75
2024/02/11 05:33:18;;;;;;;60.30;35.97;;;;;;;;;;5040398;28;20194;-75
2024/02/11 05:35:44;;;;;;;59.78;35.58;;;;;;;;;;5028014;28;20205;-75
2024/02/11 05:38:11;;;;;;;56.92;36.22;;;;;;;;;;5030248;28;20588;-75
2024/02/11 05:40:41;;;;;;;56.50;35.05;;;;;;;;;;5016978;28;20618;-75
2024/02/11 05:43:15;;;;;;;59.85;34.40;;;;;;;;;;5035358;28;20210;-75
2024/02/11 05:45:41;;;;;;;56.95;34.97;;;;;;;;;;5036888;28;20254;-75
2024/02/11 05:48:07;;;;;;;56.33;34.15;;;;;;;;;;5027695;28;20673;-75
2024/02/11 05:50:34;;;;;;;55.95;33.33;;;;;;;;;;5003661;28;20696;-75
2024/02/11 05:53:00;;;;;;;54.20;33.67;;;;;;;;;;5024479;28;20198;-75
2024/02/11 05:55:26;;;;;;;52.95;33.38;;;;;;;;;;5022485;28;20189;-75
2024/02/11 05:57:53;;;;;;;50.78;32.72;;;;;;;;;;5027839;28;20201;-75
2024/02/11 06:00:24;;;;;;;54.00;32.78;;;;;;;;;;5021530;28;20205;-75
2024/02/11 06:02:51;;;;;;;56.88;34.28;;;;;;;;;;5025533;28;20182;-75
2024/02/11 06:05:17;;;;;;;57.45;33.38;;;;;;;;;;5024248;28;20521;-75
2024/02/11 06:07:49;;;;;;;58.42;34.67;;;;;;;;;;5028940;28;20215;-75
2024/02/11 06:10:16;;;;;;;57.30;33.00;;;;;;;;;;5035925;28;20719;-75
2024/02/11 06:12:43;;;;;;;57.35;34.58;;;;;;;;;;5034652;28;20281;-75
2024/02/11 06:15:13;;;;;;;55.20;33.95;;;;;;;;;;5041848;28;20198;-75
2024/02/11 06:17:40;;;;;;;59.10;35.00;;;;;;;;;;5025328;28;20298;-75
2024/02/11 06:20:17;;;;;;;55.70;34.28;;;;;;;;;;5027642;28;20591;-75
2024/02/11 06:22:44;;;;;;;59.13;33.83;;;;;;;;;;5022651;28;20272;-76
2024/02/11 06:25:11;;;;;;;55.95;33.30;;;;;;;;;;5022356;28;20194;-76
2024/02/11 06:27:38;;;;;;;53.72;34.20;;;;;;;;;;5035083;28;20255;-75
2024/02/11 06:30:14;;;;;;;51.03;31.80;;;;;;;;;;5033880;28;20593;-75
2024/02/11 06:32:44;;;;;;;53.83;34.38;;;;;;;;;;5035150;28;20192;-75
2024/02/11 06:35:10;;;;;;;54.28;34.38;;;;;;;;;;5040499;28;20198;-75
2024/02/11 06:37:39;;;;;;;52.08;32.65;;;;;;;;;;5027998;28;20194;-75
2024/02/11 06:40:12;;;;;;;52.17;32.72;;;;;;;;;;5035097;28;20214;-75
2024/02/11 06:42:39;;;;;;;52.90;32.28;;;;;;;;;;5034544;28;20190;-76
2024/02/11 06:45:08;;;;;;;51.22;31.83;;;;;;;;;;5024998;28;20198;-76
2024/02/11 06:47:37;;;;;;;52.83;31.88;;;;;;;;;;5023716;28;20673;-76
2024/02/11 06:50:03;;;;;;;49.95;31.08;;;;;;;;;;5027379;28;20194;-76
2024/02/11 06:52:29;;;;;;;50.47;31.13;;;;;;;;;;5021459;28;20191;-75
2024/02/11 06:54:55;;;;;;;49.05;31.50;;;;;;;;;;5029529;28;20188;-75
2024/02/11 06:57:22;;;;;;;48.47;31.58;;;;;;;;;;5035223;28;20197;-76
2024/02/11 06:59:48;;;;;;;47.83;30.65;;;;;;;;;;5026152;28;20269;-75
2024/02/11 07:02:14;;;;;;;49.83;30.73;;;;;;;;;;5039035;28;20256;-76
2024/02/11 07:04:41;;;;;;;45.22;30.50;;;;;;;;;;5015237;28;20189;-75
2024/02/11 07:07:08;;;;;;;50.72;31.05;;;;;;;;;;5022125;28;20542;-75
2024/02/11 07:09:34;;;;;;;48.53;30.45;;;;;;;;;;5009166;28;20357;-76
2024/02/11 07:11:59;;;;;;;45.50;30.20;;;;;;;;;;5031877;28;21305;-76
2024/02/11 07:14:25;;;;;;;49.33;31.25;;;;;;;;;;5017229;28;20187;-75
2024/02/11 07:16:51;;;;;;;50.55;31.35;;;;;;;;;;5038834;28;20247;-75
2024/02/11 07:19:18;;;;;;;47.25;29.80;;;;;;;;;;5022355;28;20530;-76
2024/02/11 07:21:43;;;;;;;45.80;30.13;;;;;;;;;;5034601;28;20376;-76
2024/02/11 07:24:09;;;;;;;44.67;29.55;;;;;;;;;;5029035;28;20238;-76
2024/02/11 07:26:38;;;;;;;48.85;29.73;;;;;;;;;;5017274;28;20190;-77
2024/02/11 07:29:04;;;;;;;45.80;29.75;;;;;;;;;;5016586;28;20193;-76
2024/02/11 07:31:33;;;;;;;48.30;29.33;;;;;;;;;;5032892;28;20193;-76
2024/02/11 07:34:01;;;;;;;47.15;30.02;;;;;;;;;;5029918;28;20221;-75
2024/02/11 07:36:27;;;;;;;47.47;29.30;;;;;;;;;;5026192;28;20299;-76
2024/02/11 07:38:53;;;;;;;42.72;27.38;;;;;;;;;;5029922;28;20201;-76
2024/02/11 07:41:19;;;;;;;43.67;27.98;;;;;;;;;;5024092;28;20246;-76
2024/02/11 07:43:46;;;;;;;38.28;25.77;;;;;;;;;;5029407;28;20585;-75
2024/02/11 07:46:13;;;;;;;41.22;26.35;;;;;;;;;;5027643;28;20628;-75
2024/02/11 07:48:42;;;;;;;37.15;24.05;;;;;;;;;;5023266;28;20190;-76
2024/02/11 07:51:08;;;;;;;37.88;24.67;;;;;;;;;;5025151;28;20191;-75
2024/02/11 07:53:34;;;;;;;36.92;25.50;;;;;;;;;;5016635;28;20190;-76
2024/02/11 07:56:02;;;;;;;35.42;24.13;;;;;;;;;;5017384;28;20607;-76
2024/02/11 07:58:28;;;;;;;32.88;22.52;;;;;;;;;;5028428;28;20288;-76
2024/02/11 08:00:54;;;;;;;35.60;24.25;;;;;;;;;;5023834;28;20348;-76
2024/02/11 08:03:20;;;;;;;34.38;23.02;;;;;;;;;;5020160;28;20186;-76
2024/02/11 08:05:46;;;;;;;32.03;22.42;;;;;;;;;;5039408;28;20550;-76
2024/02/11 08:08:11;;;;;;;33.15;22.77;;;;;;;;;;5003771;28;20210;-76
2024/02/11 08:10:37;;;;;;;35.05;21.60;;;;;;;;;;5007718;28;20547;-76
2024/02/11 08:13:02;;;;;;;34.47;21.38;;;;;;;;;;5030777;28;20690;-76
2024/02/11 08:15:28;;;;;;;31.02;21.25;;;;;;;;;;5036192;28;20198;-76
2024/02/11 08:17:53;;;;;;;33.25;20.95;;;;;;;;;;5027129;28;20662;-77
2024/02/11 08:20:19;;;;;;;31.35;21.75;;;;;;;;;;5011233;28;20739;-76
2024/02/11 08:22:48;;;;;;;37.40;23.27;;;;;;;;;;5004249;28;20199;-77
2024/02/11 08:25:13;;;;;;;31.58;22.27;;;;;;;;;;5029941;28;20195;-75
2024/02/11 08:27:39;;;;;;;31.30;22.80;;;;;;;;;;5023294;28;20760;-76
2024/02/11 08:30:10;;;;;;;39.42;23.83;;;;;;;;;;5025117;28;20221;-76
2024/02/11 08:32:36;;;;;;;31.52;21.85;;;;;;;;;;5017695;28;20569;-76
2024/02/11 08:35:05;;;;;;;33.80;22.67;;;;;;;;;;5027359;28;20190;-76
2024/02/11 08:37:32;;;;;;;33.72;21.98;;;;;;;;;;5033065;28;20616;-76
2024/02/11 08:39:58;;;;;;;29.80;20.98;;;;;;;;;;5036549;28;20301;-76
2024/02/11 08:42:24;;;;;;;30.58;21.67;;;;;;;;;;5031662;28;20265;-76
2024/02/11 08:44:51;;;;;;;24.27;17.15;;;;;;;;;;5041895;28;20201;-75
2024/02/11 08:47:16;;;;;;;20.63;15.68;;;;;;;;;;5039672;28;20299;-76
2024/02/11 08:49:43;;;;;;;16.88;12.82;;;;;;;;;;5036782;28;20676;-75
2024/02/11 08:52:10;;;;;;;16.73;12.73;;;;;;;;;;5029076;28;20194;-76
2024/02/11 08:54:36;;;;;;;13.98;10.77;;;;;;;;;;5035394;28;20280;-76
2024/02/11 08:57:02;;;;;;;13.57;10.05;;;;;;;;;;5030350;28;20189;-76
2024/02/11 08:59:30;;;;;;;12.02;9.50;;;;;;;;;;5029240;28;20265;-75
2024/02/11 09:01:56;;;;;;;11.70;8.95;;;;;;;;;;5036327;28;20189;-76
2024/02/11 09:04:23;;;;;;;12.30;9.68;;;;;;;;;;5028218;28;20224;-75
2024/02/11 09:06:56;;;;;;;12.88;9.95;;;;;;;;;;5026288;28;20780;-75
2024/02/11 09:09:27;;;;;;;11.77;9.00;;;;;;;;;;5026250;28;20246;-74
2024/02/11 09:11:54;;;;;;;13.07;10.15;;;;;;;;;;5014867;28;20284;-75
2024/02/11 09:14:20;;;;;;;12.60;9.20;;;;;;;;;;5031397;28;20504;-75
2024/02/11 09:16:46;;;;;;;13.23;10.27;;;;;;;;;;5040372;28;20235;-75
2024/02/11 09:19:11;;;;;;;12.88;9.77;;;;;;;;;;5029661;28;20217;-75
2024/02/11 09:21:37;;;;;;;12.35;9.55;;;;;;;;;;5031607;28;20297;-75
2024/02/11 09:24:02;;;;;;;11.75;9.25;;;;;;;;;;5045273;28;20220;-75
2024/02/11 09:26:28;;;;;;;14.02;10.10;;;;;;;;;;5037023;28;20186;-75
2024/02/11 09:28:54;;;;;;;12.30;9.63;;;;;;;;;;5014977;28;20622;-74
2024/02/11 09:31:20;;;;;;;12.02;9.55;;;;;;;;;;5033472;28;20266;-74
2024/02/11 09:33:46;;;;;;;14.52;10.63;;;;;;;;;;5045502;28;20246;-74
2024/02/11 09:36:12;;;;;;;12.38;10.10;;;;;;;;;;5036892;28;20269;-74
2024/02/11 09:38:37;;;;;;;12.02;9.90;;;;;;;;;;5035970;28;20182;-74
2024/02/11 09:41:04;;;;;;;11.05;9.20;;;;;;;;;;5008361;28;20210;-75
2024/02/11 09:43:30;;;;;;;10.57;8.15;;;;;;;;;;5026381;28;20288;-75
2024/02/11 09:45:58;;;;;;;9.05;8.00;;;;;;;;;;5031870;28;20694;-75
2024/02/11 09:48:26;;;;;;;11.52;7.72;;;;;;;;;;5040066;28;20461;-74
2024/02/11 09:50:53;;;;;;;8.25;7.30;;;;;;;;;;5027736;28;20186;-74
2024/02/11 09:53:19;;;;;;;10.75;8.10;;;;;;;;;;5039677;28;20303;-75
2024/02/11 09:55:45;;;;;;;9.63;7.63;;;;;;;;;;5033640;28;20185;-74
2024/02/11 09:58:10;;;;;;;9.65;7.93;;;;;;;;;;5022056;28;20197;-75
2024/02/11 10:00:36;;;;;;;9.57;8.20;;;;;;;;;;5025381;28;20206;-75
2024/02/11 10:03:02;;;;;;;10.45;8.65;;;;;;;;;;5028904;28;20606;-75
2024/02/11 10:05:33;;;;;;;13.07;10.05;;;;;;;;;;5035838;28;20278;-74
2024/02/11 10:08:00;;;;;;;12.68;10.25;;;;;;;;;;5027373;28;20213;-75
2024/02/11 10:10:25;;;;;;;13.95;10.00;;;;;;;;;;5031024;28;20213;-74
2024/02/11 10:12:51;;;;;;;11.30;9.40;;;;;;;;;;5032903;28;20219;-74
2024/02/11 10:15:19;;;;;;;14.38;10.45;;;;;;;;;;5047668;28;20190;-74
2024/02/11 10:17:46;;;;;;;12.70;9.75;;;;;;;;;;5027902;28;20686;-74
2024/02/11 10:20:15;;;;;;;15.10;9.73;;;;;;;;;;5038833;28;20256;-75
2024/02/11 10:22:42;;;;;;;13.45;10.02;;;;;;;;;;5035734;28;20539;-74
2024/02/11 10:25:13;;;;;;;14.05;9.68;;;;;;;;;;5027553;28;20599;-76
2024/02/11 10:27:39;;;;;;;13.30;9.52;;;;;;;;;;5031339;28;20641;-74
2024/02/11 10:30:09;;;;;;;15.48;10.85;;;;;;;;;;5032709;28;20186;-75
2024/02/11 10:32:36;;;;;;;16.40;9.35;;;;;;;;;;5041820;28;20185;-74
2024/02/11 10:35:04;;;;;;;14.40;9.63;;;;;;;;;;5020515;28;20182;-75
2024/02/11 10:37:41;;;;;;;15.77;9.68;;;;;;;;;;5025098;28;20285;-74
2024/02/11 10:40:11;;;;;;;19.80;9.60;;;;;;;;;;5021176;28;20296;-74
2024/02/11 10:42:40;;;;;;;17.15;9.15;;;;;;;;;;5023779;28;20296;-74
2024/02/11 10:45:07;;;;;;;20.63;9.02;;;;;;;;;;5027639;28;20186;-75
2024/02/11 10:47:32;;;;;;;18.35;9.05;;;;;;;;;;5028193;28;20526;-74
2024/02/11 10:49:58;;;;;;;17.52;8.95;;;;;;;;;;5019691;28;20209;-74
2024/02/11 10:52:30;;;;;;;21.23;9.05;;;;;;;;;;5024219;28;20190;-74
2024/02/11 10:55:01;;;;;;;22.60;9.50;;;;;;;;;;5027739;28;20495;-74
2024/02/11 10:57:32;;;;;;;20.35;10.30;;;;;;;;;;5028998;28;20200;-74
2024/02/11 11:00:00;;;;;;;18.35;9.50;;;;;;;;;;5034326;28;20194;-74
2024/02/11 11:02:28;;;;;;;17.52;9.50;;;;;;;;;;5030373;28;20254;-74
2024/02/11 11:04:57;;;;;;;20.30;9.68;;;;;;;;;;5030292;28;20265;-75
2024/02/11 11:07:24;;;;;;;24.05;10.68;;;;;;;;;;5006678;28;20657;-75
2024/02/11 11:09:50;;;;;;;22.25;11.10;;;;;;;;;;5017935;28;20191;-74
2024/02/11 11:12:17;;;;;;;27.50;11.32;;;;;;;;;;5018057;28;20189;-74
2024/02/11 11:14:49;;;;;;;21.40;10.95;;;;;;;;;;5036961;28;20194;-75
2024/02/11 11:17:24;;;;;;;25.98;12.75;;;;;;;;;;5033504;28;20644;-75
2024/02/11 11:19:50;;;;;;;26.88;12.63;;;;;;;;;;5030258;28;20213;-75
2024/02/11 11:22:26;;;;;;;26.17;14.00;;;;;;;;;;5032925;28;20210;-76
2024/02/11 11:24:55;;;;;;;29.48;13.75;;;;;;;;;;5029205;28;20240;-76
2024/02/11 11:27:25;;;;;;;26.70;13.93;;;;;;;;;;5027713;28;20478;-76
2024/02/11 11:29:54;;;;;;;24.55;13.90;;;;;;;;;;5033452;28;20273;-76
2024/02/11 11:32:24;;;;;;;27.58;13.35;;;;;;;;;;5025315;28;20190;-75
2024/02/11 11:34:51;;;;;;;26.17;14.35;;;;;;;;;;5028543;28;20212;-76
2024/02/11 11:37:16;;;;;;;30.23;14.82;;;;;;;;;;5028039;28;20665;-76
2024/02/11 11:39:46;;;;;;;22.20;13.98;;;;;;;;;;5030344;28;20193;-76
2024/02/11 11:42:13;;;;;;;31.88;15.75;;;;;;;;;;5033187;28;20582;-76
2024/02/11 11:44:38;;;;;;;27.00;16.10;;;;;;;;;;5029247;28;20190;-76
2024/02/11 11:47:05;;;;;;;26.67;16.17;;;;;;;;;;5029154;28;20192;-76
2024/02/11 11:49:32;;;;;;;29.75;14.50;;;;;;;;;;5021926;28;20187;-76
2024/02/11 11:51:58;;;;;;;28.67;15.85;;;;;;;;;;5028576;28;20558;-76
2024/02/11 11:54:28;;;;;;;29.63;17.27;;;;;;;;;;5030092;28;20201;-76
2024/02/11 11:56:58;;;;;;;26.45;16.58;;;;;;;;;;5038409;28;20224;-76
2024/02/11 11:59:24;;;;;;;37.35;19.85;;;;;;;;;;5029661;28;20190;-76
2024/02/11 12:01:51;;;;;;;29.13;16.63;;;;;;;;;;5027621;28;20679;-76
2024/02/11 12:04:17;;;;;;;40.65;21.70;;;;;;;;;;5033115;28;20276;-76
2024/02/11 12:06:43;;;;;;;38.03;20.42;;;;;;;;;;5030586;28;20189;-76
2024/02/11 12:09:09;;;;;;;27.75;16.90;;;;;;;;;;5044655;28;20542;-77
2024/02/11 12:11:35;;;;;;;30.67;17.25;;;;;;;;;;5043463;28;20266;-76
2024/02/11 12:14:02;;;;;;;31.52;17.48;;;;;;;;;;5040054;28;20205;-76
2024/02/11 12:16:28;;;;;;;28.50;17.98;;;;;;;;;;5020664;28;20186;-76
2024/02/11 12:18:54;;;;;;;29.75;17.52;;;;;;;;;;5038616;28;20735;-75
2024/02/11 12:21:20;;;;;;;29.17;17.38;;;;;;;;;;5038702;28;20652;-76
2024/02/11 12:23:46;;;;;;;26.92;17.67;;;;;;;;;;5043425;28;20278;-76
2024/02/11 12:26:19;;;;;;;28.85;18.15;;;;;;;;;;5029302;28;20251;-76
2024/02/11 12:28:52;;;;;;;30.05;18.27;;;;;;;;;;5045379;28;20239;-76
2024/02/11 12:31:19;;;;;;;31.55;17.35;;;;;;;;;;5023519;28;20185;-76
2024/02/11 12:33:51;;;;;;;27.83;17.13;;;;;;;;;;5010597;28;20175;-75
2024/02/11 12:36:25;;;;;;;29.08;17.10;;;;;;;;;;5026496;28;20211;-75
2024/02/11 12:38:53;;;;;;;23.83;15.40;;;;;;;;;;5035188;28;20692;-75
2024/02/11 12:41:22;;;;;;;31.60;16.15;;;;;;;;;;5041969;28;20216;-75
2024/02/11 12:43:48;;;;;;;28.35;17.25;;;;;;;;;;5030008;28;20761;-75
2024/02/11 12:46:14;;;;;;;27.85;17.35;;;;;;;;;;5029262;28;20186;-75
2024/02/11 12:48:42;;;;;;;30.38;17.70;;;;;;;;;;5030288;28;20617;-75
2024/02/11 12:51:10;;;;;;;30.10;18.73;;;;;;;;;;5028520;28;20185;-75
2024/02/11 12:53:38;;;;;;;30.55;17.17;;;;;;;;;;5027942;28;20564;-75
2024/02/11 12:56:13;;;;;;;26.73;16.08;;;;;;;;;;5036122;28;20209;-75
2024/02/11 12:58:40;;;;;;;25.75;15.60;;;;;;;;;;5037005;28;20627;-75
2024/02/11 13:01:10;;;;;;;29.20;15.93;;;;;;;;;;5029478;28;20206;-75
2024/02/11 13:03:37;;;;;;;28.15;16.35;;;;;;;;;;5037202;28;20190;-75
2024/02/11 13:06:03;;;;;;;33.38;16.55;;;;;;;;;;5043032;28;20229;-75
2024/02/11 13:08:31;;;;;;;26.52;16.50;;;;;;;;;;5041400;28;20602;-75
2024/02/11 13:11:00;;;;;;;29.08;16.25;;;;;;;;;;5036779;28;20225;-75
2024/02/11 13:13:26;;;;;;;33.40;17.50;;;;;;;;;;5034487;28;20250;-75
2024/02/11 13:15:51;;;;;;;29.23;17.40;;;;;;;;;;5036446;28;20181;-74
2024/02/11 13:18:18;;;;;;;32.95;17.17;;;;;;;;;;5027857;28;20240;-74
2024/02/11 13:20:44;;;;;;;29.48;16.73;;;;;;;;;;5042031;28;20708;-75
2024/02/11 13:23:10;;;;;;;38.20;18.55;;;;;;;;;;5041597;28;20190;-74
2024/02/11 13:25:36;;;;;;;39.28;20.58;;;;;;;;;;5002452;28;20317;-74
2024/02/11 13:28:02;;;;;;;31.73;19.17;;;;;;;;;;5030197;28;20261;-74
2024/02/11 13:30:28;;;;;;;35.50;18.45;;;;;;;;;;5038488;28;20240;-74
2024/02/11 13:32:54;;;;;;;32.35;19.02;;;;;;;;;;5035469;28;20194;-74
2024/02/11 13:35:21;;;;;;;32.70;18.15;;;;;;;;;;5032494;28;20464;-74
2024/02/11 13:37:46;;;;;;;36.67;18.52;;;;;;;;;;5034923;28;20188;-75
2024/02/11 13:40:12;;;;;;;34.53;18.30;;;;;;;;;;5021363;28;20214;-75
2024/02/11 13:42:40;;;;;;;34.00;17.75;;;;;;;;;;5052125;28;20186;-75
2024/02/11 13:45:13;;;;;;;29.85;15.52;;;;;;;;;;5037691;28;20192;-76
2024/02/11 13:47:41;;;;;;;26.35;14.32;;;;;;;;;;5020794;28;20186;-75
2024/02/11 13:50:08;;;;;;;28.05;14.00;;;;;;;;;;5028674;28;20198;-75
2024/02/11 13:52:35;;;;;;;26.42;13.43;;;;;;;;;;5025455;28;20244;-74
2024/02/11 13:55:05;;;;;;;23.52;13.38;;;;;;;;;;5027843;28;20280;-74
2024/02/11 13:57:31;;;;;;;26.92;12.05;;;;;;;;;;5044657;28;20677;-74
2024/02/11 13:59:58;;;;;;;25.50;11.68;;;;;;;;;;5033804;28;20565;-74
2024/02/11 14:02:26;;;;;;;25.77;11.05;;;;;;;;;;5037239;28;20186;-74
2024/02/11 14:04:53;;;;;;;29.85;10.98;;;;;;;;;;5034613;28;20567;-74
2024/02/11 14:07:19;;;;;;;20.70;10.80;;;;;;;;;;5043627;28;20185;-75
2024/02/11 14:09:45;;;;;;;29.25;11.13;;;;;;;;;;5030776;28;20688;-74
2024/02/11 14:12:10;;;;;;;31.20;12.35;;;;;;;;;;5030647;28;20293;-74
2024/02/11 14:14:39;;;;;;;24.52;11.10;;;;;;;;;;5029149;28;20182;-74
2024/02/11 14:17:05;;;;;;;27.70;10.73;;;;;;;;;;5028282;28;20252;-74